OAL710 LGAX-LGLR
Flight info
| Callsign | OAL710 |
|---|---|
| Flight time | N/A |
| Altitude | 5000 |
| Route | DELTA KITROS PLATA TEMPI |
| Aircraft | DA40/L-SBDGRY/S |
Departure
| Time | N/A |
|---|---|
| Airport | Alexandria (Gidas) Airfield (LGAX) |
Arrival
| Time | 2026-05-03 20:36 |
|---|---|
| Airport | Larissa Air Base (LGLR) |
| Time | Latitude | Longitude | Altitude | Speed | Heading |
|---|---|---|---|---|---|
| 2026-05-03 20:15 | 40.03998 | 22.60754 | 5012 ft | 122 kts | 188° |
| 2026-05-03 20:15 | 40.03154 | 22.60600 | 5012 ft | 122 kts | 188° |
| 2026-05-03 20:15 | 40.02320 | 22.60450 | 5010 ft | 122 kts | 188° |
| 2026-05-03 20:15 | 40.01464 | 22.60296 | 5011 ft | 122 kts | 187° |
| 2026-05-03 20:16 | 40.00618 | 22.60142 | 5011 ft | 123 kts | 188° |
| 2026-05-03 20:16 | 39.99769 | 22.59973 | 5010 ft | 123 kts | 191° |
| 2026-05-03 20:16 | 39.98934 | 22.59766 | 5010 ft | 122 kts | 191° |
| 2026-05-03 20:16 | 39.98090 | 22.59554 | 5013 ft | 123 kts | 191° |
| 2026-05-03 20:17 | 39.97248 | 22.59343 | 5007 ft | 123 kts | 190° |
| 2026-05-03 20:17 | 39.96398 | 22.59129 | 4982 ft | 124 kts | 191° |
| 2026-05-03 20:17 | 39.95550 | 22.58919 | 4979 ft | 124 kts | 191° |
| 2026-05-03 20:17 | 39.94696 | 22.58720 | 4976 ft | 123 kts | 190° |
| 2026-05-03 20:18 | 39.93849 | 22.58519 | 4976 ft | 123 kts | 191° |
| 2026-05-03 20:18 | 39.93006 | 22.58318 | 4979 ft | 122 kts | 191° |
| 2026-05-03 20:18 | 39.92175 | 22.58116 | 4979 ft | 122 kts | 191° |
| 2026-05-03 20:18 | 39.91349 | 22.57836 | 4977 ft | 122 kts | 200° |
| 2026-05-03 20:19 | 39.90555 | 22.57437 | 4980 ft | 121 kts | 202° |
| 2026-05-03 20:19 | 39.89773 | 22.57035 | 4979 ft | 121 kts | 202° |
| 2026-05-03 20:19 | 39.88979 | 22.56625 | 4977 ft | 121 kts | 203° |
| 2026-05-03 20:19 | 39.88200 | 22.56205 | 4976 ft | 121 kts | 206° |
| 2026-05-03 20:20 | 39.87432 | 22.55756 | 4978 ft | 121 kts | 206° |
| 2026-05-03 20:20 | 39.86673 | 22.55309 | 4882 ft | 117 kts | 206° |
| 2026-05-03 20:20 | 39.85939 | 22.54877 | 4770 ft | 112 kts | 206° |
| 2026-05-03 20:20 | 39.85238 | 22.54470 | 4662 ft | 109 kts | 206° |
| 2026-05-03 20:21 | 39.84551 | 22.54070 | 4558 ft | 108 kts | 206° |
| 2026-05-03 20:21 | 39.83872 | 22.53676 | 4456 ft | 106 kts | 206° |
| 2026-05-03 20:21 | 39.83197 | 22.53277 | 4348 ft | 105 kts | 206° |
| 2026-05-03 20:21 | 39.82535 | 22.52885 | 4244 ft | 104 kts | 206° |
| 2026-05-03 20:22 | 39.81883 | 22.52502 | 4142 ft | 103 kts | 206° |
| 2026-05-03 20:22 | 39.81226 | 22.52108 | 4040 ft | 102 kts | 206° |
| 2026-05-03 20:22 | 39.80586 | 22.51723 | 3937 ft | 102 kts | 206° |
| 2026-05-03 20:22 | 39.79940 | 22.51333 | 3834 ft | 101 kts | 206° |
| 2026-05-03 20:23 | 39.79300 | 22.50944 | 3732 ft | 101 kts | 206° |
| 2026-05-03 20:23 | 39.78665 | 22.50562 | 3632 ft | 101 kts | 206° |
| 2026-05-03 20:23 | 39.78023 | 22.50173 | 3532 ft | 100 kts | 206° |
| 2026-05-03 20:23 | 39.77358 | 22.49911 | 3435 ft | 100 kts | 192° |
| 2026-05-03 20:24 | 39.76683 | 22.49729 | 3334 ft | 99 kts | 191° |
| 2026-05-03 20:24 | 39.75992 | 22.49545 | 3230 ft | 100 kts | 191° |
| 2026-05-03 20:24 | 39.75319 | 22.49364 | 3131 ft | 99 kts | 191° |
| 2026-05-03 20:24 | 39.74632 | 22.49177 | 3033 ft | 99 kts | 191° |
| 2026-05-03 20:25 | 39.73963 | 22.48996 | 2930 ft | 99 kts | 191° |
| 2026-05-03 20:25 | 39.73278 | 22.48807 | 2822 ft | 99 kts | 191° |
| 2026-05-03 20:25 | 39.72609 | 22.48619 | 2722 ft | 98 kts | 191° |
| 2026-05-03 20:25 | 39.71942 | 22.48427 | 2622 ft | 97 kts | 191° |
| 2026-05-03 20:26 | 39.71260 | 22.48231 | 2523 ft | 101 kts | 191° |
| 2026-05-03 20:26 | 39.70570 | 22.48032 | 2494 ft | 100 kts | 191° |
| 2026-05-03 20:26 | 39.69906 | 22.47838 | 2489 ft | 95 kts | 191° |
| 2026-05-03 20:26 | 39.69270 | 22.47652 | 2491 ft | 91 kts | 191° |
| 2026-05-03 20:27 | 39.68661 | 22.47473 | 2496 ft | 89 kts | 191° |
| 2026-05-03 20:27 | 39.68038 | 22.47291 | 2505 ft | 94 kts | 191° |
| 2026-05-03 20:27 | 39.67376 | 22.47212 | 2513 ft | 97 kts | 167° |
| 2026-05-03 20:27 | 39.66708 | 22.47406 | 2504 ft | 100 kts | 162° |
| 2026-05-03 20:28 | 39.66161 | 22.47939 | 2509 ft | 99 kts | 123° |
| 2026-05-03 20:28 | 39.65881 | 22.48736 | 2509 ft | 97 kts | 94° |
| 2026-05-03 20:28 | 39.65804 | 22.49616 | 2504 ft | 98 kts | 91° |
| 2026-05-03 20:28 | 39.65739 | 22.50496 | 2501 ft | 99 kts | 91° |
| 2026-05-03 20:29 | 39.65672 | 22.51384 | 2498 ft | 99 kts | 91° |
| 2026-05-03 20:29 | 39.65607 | 22.52278 | 2497 ft | 98 kts | 91° |
| 2026-05-03 20:29 | 39.65545 | 22.53158 | 2496 ft | 98 kts | 91° |
| 2026-05-03 20:29 | 39.65485 | 22.54045 | 2496 ft | 98 kts | 91° |
| 2026-05-03 20:30 | 39.65424 | 22.54913 | 2496 ft | 98 kts | 91° |
| 2026-05-03 20:30 | 39.65373 | 22.55794 | 2495 ft | 97 kts | 91° |
| 2026-05-03 20:30 | 39.65321 | 22.56683 | 2400 ft | 97 kts | 91° |
| 2026-05-03 20:30 | 39.65293 | 22.57546 | 2270 ft | 95 kts | 89° |
| 2026-05-03 20:31 | 39.65281 | 22.58400 | 2142 ft | 94 kts | 87° |
| 2026-05-03 20:31 | 39.65282 | 22.59239 | 2016 ft | 93 kts | 86° |
| 2026-05-03 20:31 | 39.65444 | 22.60025 | 1892 ft | 90 kts | 49° |
| 2026-05-03 20:31 | 39.65988 | 22.60378 | 1777 ft | 89 kts | 3° |
| 2026-05-03 20:32 | 39.66559 | 22.60086 | 1659 ft | 92 kts | 316° |
| 2026-05-03 20:32 | 39.66793 | 22.59323 | 1545 ft | 95 kts | 270° |
| 2026-05-03 20:32 | 39.66736 | 22.58492 | 1497 ft | 89 kts | 263° |
| 2026-05-03 20:32 | 39.66666 | 22.57710 | 1495 ft | 85 kts | 262° |
| 2026-05-03 20:33 | 39.66559 | 22.56952 | 1492 ft | 84 kts | 256° |
| 2026-05-03 20:33 | 39.66442 | 22.56203 | 1492 ft | 83 kts | 256° |
| 2026-05-03 20:33 | 39.66331 | 22.55451 | 1459 ft | 81 kts | 258° |
| 2026-05-03 20:33 | 39.66241 | 22.54779 | 1387 ft | 72 kts | 257° |
| 2026-05-03 20:34 | 39.66153 | 22.54147 | 1294 ft | 71 kts | 257° |
| 2026-05-03 20:34 | 39.66059 | 22.53510 | 1182 ft | 73 kts | 258° |
| 2026-05-03 20:34 | 39.65963 | 22.52847 | 1061 ft | 75 kts | 258° |
| 2026-05-03 20:34 | 39.65866 | 22.52186 | 944 ft | 75 kts | 259° |
| 2026-05-03 20:35 | 39.65766 | 22.51513 | 823 ft | 76 kts | 259° |
| 2026-05-03 20:35 | 39.65664 | 22.50842 | 699 ft | 76 kts | 260° |
| 2026-05-03 20:35 | 39.65558 | 22.50162 | 570 ft | 77 kts | 260° |
| 2026-05-03 20:35 | 39.65461 | 22.49492 | 454 ft | 75 kts | 259° |
| 2026-05-03 20:36 | 39.65366 | 22.48826 | 346 ft | 74 kts | 260° |
| 2026-05-03 20:36 | 39.65275 | 22.48180 | 249 ft | 72 kts | 257° |
| 2026-05-03 20:36 | 39.65194 | 22.47635 | 222 ft | 49 kts | 257° |
| 2026-05-03 20:36 | 39.65150 | 22.47339 | 223 ft | 18 kts | 257° |
| 2026-05-03 20:37 | 39.65129 | 22.47207 | 224 ft | 12 kts | 263° |
| 2026-05-03 20:37 | 39.65122 | 22.47114 | 224 ft | 8 kts | 259° |
| 2026-05-03 20:37 | 39.65111 | 22.47058 | 224 ft | 5 kts | 256° |
| 2026-05-03 20:37 | 39.65101 | 22.46995 | 225 ft | 8 kts | 260° |
| 2026-05-03 20:38 | 39.65088 | 22.46901 | 225 ft | 12 kts | 261° |
| 2026-05-03 20:38 | 39.65071 | 22.46787 | 225 ft | 13 kts | 258° |
| 2026-05-03 20:38 | 39.65052 | 22.46663 | 225 ft | 13 kts | 257° |
| 2026-05-03 20:38 | 39.65037 | 22.46555 | 225 ft | 5 kts | 277° |
| 2026-05-03 20:39 | 39.65063 | 22.46553 | 225 ft | 0 kts | 2° |
| 2026-05-03 20:39 | 39.65117 | 22.46550 | 225 ft | 9 kts | 351° |
| 2026-05-03 20:39 | 39.65193 | 22.46531 | 225 ft | 12 kts | 349° |
| 2026-05-03 20:39 | 39.65275 | 22.46511 | 225 ft | 12 kts | 349° |
| 2026-05-03 20:40 | 39.65361 | 22.46491 | 224 ft | 12 kts | 355° |
| 2026-05-03 20:40 | 39.65447 | 22.46499 | 224 ft | 12 kts | 12° |
| 2026-05-03 20:40 | 39.65530 | 22.46524 | 224 ft | 12 kts | 12° |
| 2026-05-03 20:40 | 39.65605 | 22.46546 | 223 ft | 9 kts | 12° |
| 2026-05-03 20:41 | 39.65662 | 22.46563 | 223 ft | 6 kts | 12° |
| 2026-05-03 20:41 | 39.65698 | 22.46582 | 223 ft | 4 kts | 59° |
| 2026-05-03 20:41 | 39.65720 | 22.46616 | 223 ft | 5 kts | 29° |
| 2026-05-03 20:41 | 39.65738 | 22.46629 | 223 ft | 0 kts | 25° |